createdAt,value
2022-10-04T00:02:29.300Z,86.79
2022-10-04T00:05:34.243Z,86.88
2022-10-04T00:08:45.833Z,87.14
2022-10-04T00:11:49.350Z,87.16
2022-10-04T00:14:53.977Z,87.32
2022-10-04T00:18:09.356Z,87.17
2022-10-04T00:21:13.562Z,87.20
2022-10-04T00:24:23.097Z,87.04
2022-10-04T00:27:28.192Z,87.21
2022-10-04T00:30:38.563Z,87.56
2022-10-04T00:33:42.910Z,87.35
2022-10-04T00:36:57.510Z,87.27
2022-10-04T00:40:11.143Z,87.60
2022-10-04T00:43:19.337Z,87.51
2022-10-04T00:46:24.831Z,87.27
2022-10-04T00:49:34.743Z,87.64
2022-10-04T00:52:46.279Z,87.22
2022-10-04T00:55:52.588Z,87.30
2022-10-04T00:59:23.003Z,87.41
2022-10-04T01:02:32.849Z,87.24
2022-10-04T01:05:39.309Z,87.06
2022-10-04T01:08:49.114Z,87.06
2022-10-04T01:12:01.564Z,86.84
2022-10-04T01:15:08.627Z,86.91
2022-10-04T01:18:15.419Z,86.23
2022-10-04T01:21:28.246Z,86.24
2022-10-04T01:24:37.702Z,86.25
2022-10-04T01:27:43.929Z,86.68
2022-10-04T01:30:47.431Z,86.34
2022-10-04T01:33:50.226Z,86.35
2022-10-04T01:36:55.399Z,86.09
2022-10-04T01:40:00.129Z,86.22
2022-10-04T01:43:07.791Z,86.06
2022-10-04T01:46:14.432Z,86.21
2022-10-04T01:49:21.634Z,86.37
2022-10-04T01:52:31.235Z,85.81
2022-10-04T01:55:38.441Z,86.22
2022-10-04T01:58:46.214Z,86.06
2022-10-04T02:01:54.860Z,86.02
2022-10-04T02:05:00.652Z,86.12
2022-10-04T02:08:06.304Z,86.12
2022-10-04T02:11:11.849Z,86.27
2022-10-04T02:14:17.803Z,85.84
2022-10-04T02:17:23.896Z,86.09
2022-10-04T02:20:28.385Z,86.33
2022-10-04T02:23:32.489Z,86.68
2022-10-04T02:26:36.608Z,86.89
2022-10-04T02:29:39.415Z,87.02
2022-10-04T02:32:59.717Z,86.89
2022-10-04T02:36:03.044Z,86.87
2022-10-04T02:39:11.475Z,86.41
2022-10-04T02:42:20.435Z,86.40
2022-10-04T02:45:29.537Z,85.86
2022-10-04T02:48:39.572Z,85.56
2022-10-04T02:51:48.551Z,85.38
2022-10-04T02:55:01.027Z,85.82
2022-10-04T02:58:11.133Z,85.69
2022-10-04T03:01:26.402Z,85.60
2022-10-04T03:04:31.895Z,85.31
2022-10-04T03:07:36.827Z,85.29
2022-10-04T03:10:43.190Z,85.57
2022-10-04T03:13:50.317Z,85.89
2022-10-04T03:16:55.650Z,87.40
2022-10-04T03:19:59.212Z,86.99
2022-10-04T03:23:05.211Z,86.48
2022-10-04T03:26:21.456Z,86.21
2022-10-04T03:29:28.608Z,86.46
2022-10-04T03:32:32.745Z,86.49
2022-10-04T03:35:39.046Z,88.68
2022-10-04T03:38:41.845Z,90.45
2022-10-04T03:41:44.921Z,90.02
2022-10-04T03:44:51.776Z,89.40
2022-10-04T03:47:59.804Z,88.80
2022-10-04T03:51:05.548Z,88.23
2022-10-04T03:54:12.335Z,87.77
2022-10-04T03:57:15.210Z,87.23
2022-10-04T04:00:20.090Z,87.15
2022-10-04T04:03:23.995Z,86.89
2022-10-04T04:06:30.578Z,86.65
2022-10-04T04:09:42.877Z,86.09
2022-10-04T04:12:52.932Z,85.98
2022-10-04T04:15:58.366Z,85.60
2022-10-04T04:19:04.839Z,85.68
2022-10-04T04:22:08.151Z,85.34
2022-10-04T04:25:17.552Z,85.31
2022-10-04T04:28:27.706Z,85.06
2022-10-04T04:31:37.555Z,85.01
2022-10-04T04:34:52.838Z,85.01
2022-10-04T04:38:15.037Z,85.19
2022-10-04T04:41:17.804Z,85.42
2022-10-04T04:44:20.898Z,85.50
2022-10-04T04:47:33.816Z,85.38
2022-10-04T04:50:41.075Z,85.01
2022-10-04T04:53:44.333Z,85.01
2022-10-04T04:56:50.132Z,85.37
2022-10-04T04:59:57.210Z,85.37
2022-10-04T05:03:03.800Z,85.07
2022-10-04T05:06:23.390Z,85.35
2022-10-04T05:09:29.910Z,87.20
2022-10-04T05:12:32.703Z,87.80
2022-10-04T05:15:38.086Z,88.64
2022-10-04T05:18:42.428Z,89.07
2022-10-04T05:21:47.948Z,90.41
2022-10-04T05:24:54.682Z,90.74
2022-10-04T05:27:58.224Z,91.48
2022-10-04T05:31:33.380Z,92.26
2022-10-04T05:34:41.244Z,92.81
2022-10-04T05:37:58.263Z,93.28
2022-10-04T05:41:07.681Z,93.36
2022-10-04T05:44:27.143Z,93.17
2022-10-04T05:47:32.199Z,92.67
2022-10-04T05:50:40.644Z,92.24
2022-10-04T05:53:44.714Z,91.69
2022-10-04T05:57:05.105Z,90.82
2022-10-04T06:00:17.479Z,90.93
2022-10-04T06:03:42.238Z,90.61
2022-10-04T06:06:51.485Z,90.85
2022-10-04T06:10:36.522Z,91.22
2022-10-04T06:13:59.940Z,91.68
2022-10-04T06:17:35.715Z,91.79
2022-10-04T06:20:56.614Z,91.48
2022-10-04T06:24:10.455Z,92.11
2022-10-04T06:27:17.086Z,91.86
2022-10-04T06:30:21.464Z,91.59
2022-10-04T06:33:41.905Z,91.34
2022-10-04T06:37:02.819Z,91.59
2022-10-04T06:40:29.485Z,91.39
2022-10-04T06:43:47.371Z,91.63
2022-10-04T06:46:53.519Z,90.37
2022-10-04T06:50:05.813Z,90.67
2022-10-04T06:53:21.194Z,90.65
2022-10-04T06:56:44.199Z,90.24
2022-10-04T07:00:04.481Z,90.29
2022-10-04T07:03:15.260Z,89.95
2022-10-04T07:06:27.004Z,89.88
2022-10-04T07:09:30.673Z,90.52
2022-10-04T07:12:39.868Z,90.69
2022-10-04T07:15:50.111Z,90.87
2022-10-04T07:19:08.388Z,90.86
2022-10-04T07:22:18.479Z,90.23
2022-10-04T07:25:25.155Z,89.35
2022-10-04T07:28:52.025Z,89.42
2022-10-04T07:32:08.304Z,89.10
2022-10-04T07:35:22.109Z,89.71
2022-10-04T07:38:28.375Z,89.45
2022-10-04T07:41:36.598Z,89.51
2022-10-04T07:44:43.942Z,89.49
2022-10-04T07:47:47.491Z,89.00
2022-10-04T07:51:00.204Z,88.59
2022-10-04T07:54:12.451Z,88.12
2022-10-04T07:57:23.766Z,88.41
2022-10-04T08:00:35.576Z,88.54
2022-10-04T08:03:49.130Z,87.92
2022-10-04T08:06:59.226Z,88.49
2022-10-04T08:10:07.845Z,87.95
2022-10-04T08:13:23.341Z,87.69
2022-10-04T08:16:36.870Z,87.09
2022-10-04T08:19:48.851Z,87.20
2022-10-04T08:23:03.092Z,87.94
2022-10-04T08:26:20.187Z,88.87
2022-10-04T08:29:43.586Z,89.01
2022-10-04T08:33:06.396Z,88.27
2022-10-04T08:36:22.540Z,87.98
2022-10-04T08:39:41.881Z,88.61
2022-10-04T08:43:21.001Z,88.62
2022-10-04T08:47:09.229Z,87.75
2022-10-04T08:50:44.482Z,88.70
2022-10-04T08:54:20.220Z,89.54
2022-10-04T08:57:45.940Z,89.67
2022-10-04T09:01:01.101Z,89.89
2022-10-04T09:04:45.678Z,90.11
2022-10-04T09:08:04.602Z,90.37
2022-10-04T09:11:32.368Z,89.87
2022-10-04T09:14:52.308Z,89.82
2022-10-04T09:18:02.899Z,88.88
2022-10-04T09:21:11.793Z,89.22
2022-10-04T09:24:39.500Z,88.51
2022-10-04T09:28:15.433Z,88.71
2022-10-04T09:31:44.583Z,88.56
2022-10-04T09:35:06.601Z,87.86
2022-10-04T09:38:29.792Z,88.18
2022-10-04T09:41:45.108Z,88.01
2022-10-04T09:45:15.750Z,87.43
2022-10-04T09:48:29.039Z,86.77
2022-10-04T09:52:02.866Z,87.04
2022-10-04T09:55:29.728Z,85.76
2022-10-04T09:59:08.679Z,86.33
2022-10-04T10:02:43.826Z,85.43
2022-10-04T10:05:57.567Z,84.60
2022-10-04T10:09:16.163Z,83.93
2022-10-04T10:13:09.615Z,84.07
2022-10-04T10:16:30.064Z,83.82
2022-10-04T10:20:04.654Z,82.96
2022-10-04T10:23:30.763Z,83.79
2022-10-04T10:27:07.255Z,83.19
2022-10-04T10:30:24.400Z,81.87
2022-10-04T10:33:42.946Z,82.60
2022-10-04T10:37:09.086Z,81.09
2022-10-04T10:40:33.385Z,79.45
2022-10-04T10:43:52.132Z,79.35
2022-10-04T10:47:06.369Z,79.22
2022-10-04T10:50:28.182Z,79.43
2022-10-04T10:53:54.003Z,78.08
2022-10-04T10:57:06.887Z,78.51
2022-10-04T11:00:23.367Z,78.08
2022-10-04T11:03:54.770Z,78.05
2022-10-04T11:07:38.251Z,77.46
2022-10-04T11:11:11.379Z,77.43
2022-10-04T11:14:47.628Z,77.25
2022-10-04T11:18:28.982Z,77.02
2022-10-04T11:22:17.394Z,76.75
2022-10-04T11:26:03.061Z,75.89
2022-10-04T11:29:20.468Z,76.58
2022-10-04T11:32:46.385Z,75.50
2022-10-04T11:36:28.106Z,76.05
2022-10-04T11:39:58.526Z,74.17
2022-10-04T11:43:24.285Z,72.99
2022-10-04T11:46:38.202Z,73.83
2022-10-04T11:50:15.601Z,73.67
2022-10-04T11:53:40.548Z,73.71
2022-10-04T11:57:06.093Z,74.45
2022-10-04T12:00:16.293Z,73.12
2022-10-04T12:03:56.545Z,73.67
2022-10-04T12:07:34.197Z,73.17
2022-10-04T12:10:39.446Z,71.88
2022-10-04T12:13:59.539Z,72.23
2022-10-04T12:17:46.439Z,71.16
2022-10-04T12:21:22.070Z,70.38
2022-10-04T12:24:48.402Z,69.31
2022-10-04T12:28:18.534Z,69.14
2022-10-04T12:31:27.322Z,68.44
2022-10-04T12:34:41.427Z,68.47
2022-10-04T12:38:08.297Z,68.81
2022-10-04T12:41:22.986Z,67.53
2022-10-04T12:44:42.033Z,66.69
2022-10-04T12:48:11.022Z,66.38
2022-10-04T12:51:28.843Z,65.66
2022-10-04T12:54:39.972Z,66.00
2022-10-04T12:57:51.346Z,65.78
2022-10-04T13:01:02.246Z,65.49
2022-10-04T13:04:20.501Z,64.32
2022-10-04T13:07:45.065Z,63.88
2022-10-04T13:11:07.314Z,64.32
2022-10-04T13:14:39.760Z,63.99
2022-10-04T13:17:50.497Z,63.33
2022-10-04T13:21:03.127Z,64.46
2022-10-04T13:24:19.058Z,63.85
2022-10-04T13:27:30.650Z,63.31
2022-10-04T13:30:39.488Z,63.31
2022-10-04T13:33:52.299Z,62.81
2022-10-04T13:37:07.105Z,62.45
2022-10-04T13:40:32.565Z,63.46
2022-10-04T13:43:56.915Z,62.38
2022-10-04T13:47:21.598Z,62.41
2022-10-04T13:50:39.212Z,62.53
2022-10-04T13:54:10.542Z,63.39
2022-10-04T13:57:22.560Z,62.55
2022-10-04T14:00:43.571Z,62.33
2022-10-04T14:04:00.731Z,61.97
2022-10-04T14:07:31.090Z,62.29
2022-10-04T14:11:02.655Z,61.80
2022-10-04T14:14:33.727Z,60.83
2022-10-04T14:18:04.372Z,61.52
2022-10-04T14:21:55.298Z,62.03
2022-10-04T14:25:40.230Z,63.86
2022-10-04T14:29:34.419Z,62.58
2022-10-04T14:33:07.238Z,61.36
2022-10-04T14:36:36.434Z,61.20
2022-10-04T14:40:06.252Z,60.16
2022-10-04T14:43:35.219Z,60.58
2022-10-04T14:46:52.085Z,59.29
2022-10-04T14:50:19.199Z,60.48
2022-10-04T14:53:28.308Z,60.37
2022-10-04T14:56:44.513Z,57.69
2022-10-04T15:00:08.707Z,58.34
2022-10-04T15:03:30.115Z,59.69
2022-10-04T15:06:49.158Z,59.95
2022-10-04T15:09:57.950Z,60.61
2022-10-04T15:13:12.292Z,59.48
2022-10-04T15:16:23.183Z,57.84
2022-10-04T15:19:30.714Z,58.14
2022-10-04T15:22:44.437Z,56.83
2022-10-04T15:25:52.132Z,57.64
2022-10-04T15:29:07.187Z,57.72
2022-10-04T15:32:25.874Z,57.58
2022-10-04T15:35:40.807Z,58.05
2022-10-04T15:38:53.793Z,58.04
2022-10-04T15:42:03.893Z,58.38
2022-10-04T15:45:38.228Z,59.09
2022-10-04T15:48:51.598Z,60.80
2022-10-04T15:52:16.131Z,62.45
2022-10-04T15:55:25.734Z,63.46
2022-10-04T15:59:07.140Z,64.88
2022-10-04T16:02:35.740Z,66.57
2022-10-04T16:05:45.767Z,68.12
2022-10-04T16:09:03.733Z,69.93
2022-10-04T16:12:20.559Z,70.86
2022-10-04T16:15:33.293Z,71.74
2022-10-04T16:18:47.291Z,72.68
2022-10-04T16:21:53.833Z,73.03
2022-10-04T16:25:00.059Z,74.00
2022-10-04T16:28:14.014Z,75.12
2022-10-04T16:31:24.747Z,76.08
2022-10-04T16:34:48.465Z,76.83
2022-10-04T16:37:58.387Z,77.67
2022-10-04T16:41:12.361Z,77.82
2022-10-04T16:44:40.636Z,78.89
2022-10-04T16:47:56.525Z,80.20
2022-10-04T16:51:33.948Z,80.68
2022-10-04T16:55:04.580Z,81.61
2022-10-04T16:58:56.141Z,82.02
2022-10-04T17:02:24.441Z,82.21
2022-10-04T17:06:02.535Z,82.12
2022-10-04T17:09:17.962Z,83.88
2022-10-04T17:12:27.334Z,84.08
2022-10-04T17:15:49.438Z,84.53
2022-10-04T17:19:14.107Z,84.96
2022-10-04T17:22:28.933Z,85.66
2022-10-04T17:25:42.788Z,85.38
2022-10-04T17:28:56.200Z,86.35
2022-10-04T17:32:03.888Z,86.21
2022-10-04T17:35:24.014Z,85.91
2022-10-04T17:38:36.390Z,86.24
2022-10-04T17:41:56.319Z,86.84
2022-10-04T17:45:27.502Z,86.91
2022-10-04T17:48:50.109Z,87.10
2022-10-04T17:52:15.476Z,87.21
2022-10-04T17:55:22.005Z,87.48
2022-10-04T17:58:31.370Z,87.87
2022-10-04T18:01:38.677Z,88.72
2022-10-04T18:04:52.014Z,88.87
2022-10-04T18:08:00.970Z,89.47
2022-10-04T18:11:14.850Z,89.82
2022-10-04T18:14:43.068Z,89.73
2022-10-04T18:17:49.690Z,89.71
2022-10-04T18:21:20.992Z,88.96
2022-10-04T18:24:30.397Z,89.50
2022-10-04T18:27:33.576Z,90.19
2022-10-04T18:30:54.023Z,89.61
2022-10-04T18:33:58.877Z,90.13
2022-10-04T18:37:07.194Z,90.37
2022-10-04T18:40:17.452Z,90.57
2022-10-04T18:43:26.898Z,90.72
2022-10-04T18:46:39.884Z,90.68
2022-10-04T18:49:48.758Z,91.19
2022-10-04T18:53:03.303Z,90.92
2022-10-04T18:56:09.730Z,91.27
2022-10-04T18:59:38.736Z,91.71
2022-10-04T19:02:51.193Z,91.78
2022-10-04T19:06:02.299Z,92.18
2022-10-04T19:09:15.783Z,92.24
2022-10-04T19:12:24.184Z,92.40
2022-10-04T19:15:40.108Z,92.06
2022-10-04T19:18:50.651Z,92.26
2022-10-04T19:21:59.934Z,92.11
2022-10-04T19:25:19.733Z,92.18
2022-10-04T19:28:28.467Z,92.08
2022-10-04T19:31:40.392Z,92.37
2022-10-04T19:34:55.305Z,92.07
2022-10-04T19:38:08.470Z,92.12
2022-10-04T19:41:19.002Z,92.49
2022-10-04T19:44:36.900Z,92.56
2022-10-04T19:47:48.915Z,92.74
2022-10-04T19:50:59.691Z,92.32
2022-10-04T19:54:14.756Z,92.28
2022-10-04T19:57:24.633Z,92.70
2022-10-04T20:00:28.720Z,92.22
2022-10-04T20:03:31.505Z,92.70
2022-10-04T20:06:34.495Z,92.69
2022-10-04T20:09:52.235Z,92.29
2022-10-04T20:13:21.518Z,92.34
2022-10-04T20:16:57.485Z,92.27
2022-10-04T20:20:01.854Z,92.53
2022-10-04T20:23:04.575Z,92.41
2022-10-04T20:26:08.875Z,92.70
2022-10-04T20:29:11.838Z,92.50
2022-10-04T20:32:55.791Z,92.42
2022-10-04T20:36:01.702Z,92.75
2022-10-04T20:39:06.266Z,92.82
2022-10-04T20:42:20.202Z,92.74
2022-10-04T20:45:27.944Z,92.98
2022-10-04T20:48:33.051Z,93.27
2022-10-04T20:51:37.908Z,93.71
2022-10-04T20:54:40.831Z,93.91
2022-10-04T20:57:44.004Z,93.93
2022-10-04T21:00:52.779Z,93.88
2022-10-04T21:04:13.405Z,93.66
2022-10-04T21:07:21.288Z,93.85
2022-10-04T21:10:24.014Z,94.03
2022-10-04T21:13:55.006Z,94.04
2022-10-04T21:17:02.438Z,94.68
2022-10-04T21:20:06.907Z,94.44
2022-10-04T21:23:19.199Z,94.58
2022-10-04T21:26:23.465Z,94.94
2022-10-04T21:29:26.196Z,94.88
2022-10-04T21:32:34.631Z,94.63
2022-10-04T21:35:37.298Z,94.94
2022-10-04T21:38:42.070Z,94.87
2022-10-04T21:41:44.944Z,95.04
2022-10-04T21:44:48.219Z,94.90
2022-10-04T21:47:51.138Z,95.22
2022-10-04T21:50:55.191Z,95.17
2022-10-04T21:53:59.538Z,95.32
2022-10-04T21:57:02.639Z,95.66
2022-10-04T22:00:06.347Z,96.10
2022-10-04T22:03:09.418Z,97.51
2022-10-04T22:06:12.114Z,97.59
2022-10-04T22:09:16.198Z,97.77
2022-10-04T22:12:18.968Z,97.97
2022-10-04T22:15:23.896Z,98.27
2022-10-04T22:18:26.846Z,99.00
2022-10-04T22:21:29.855Z,98.89
2022-10-04T22:24:34.275Z,98.64
2022-10-04T22:27:36.950Z,98.96
2022-10-04T22:30:40.025Z,98.69
2022-10-04T22:33:45.097Z,99.29
2022-10-04T22:36:50.207Z,99.45
2022-10-04T22:39:54.666Z,99.41
2022-10-04T22:43:01.067Z,99.35
2022-10-04T22:46:04.046Z,99.49
2022-10-04T22:49:11.115Z,99.27
2022-10-04T22:52:16.944Z,99.27
2022-10-04T22:55:21.105Z,99.31
2022-10-04T22:58:24.477Z,99.09
2022-10-04T23:01:28.685Z,99.05
2022-10-04T23:04:31.452Z,99.68
2022-10-04T23:07:38.189Z,99.19
2022-10-04T23:10:42.933Z,99.27
2022-10-04T23:13:45.744Z,99.14
2022-10-04T23:16:48.863Z,99.02
2022-10-04T23:19:55.298Z,98.76
2022-10-04T23:23:00.695Z,99.70
2022-10-04T23:26:14.562Z,98.93
2022-10-04T23:29:19.832Z,99.01
2022-10-04T23:32:22.522Z,99.51
2022-10-04T23:35:27.464Z,99.38
2022-10-04T23:38:30.550Z,99.59
2022-10-04T23:41:34.695Z,100.00
2022-10-04T23:44:39.442Z,100.00
2022-10-04T23:47:42.328Z,100.00
2022-10-04T23:50:45.428Z,100.00
2022-10-04T23:53:50.737Z,100.00
2022-10-04T23:56:54.817Z,100.00
